createdAt,value
2023-01-07T00:04:58.961Z,-21.00235
2023-01-07T00:09:59.862Z,-20.34981
2023-01-07T00:15:00.829Z,-20.23018
2023-01-07T00:20:01.757Z,-20.10011
2023-01-07T00:25:02.798Z,-19.52372
2023-01-07T00:30:03.799Z,-19.47393
2023-01-07T00:35:04.798Z,-19.72346
2023-01-07T00:40:05.697Z,-18.86325
2023-01-07T00:45:06.712Z,-19.97896
2023-01-07T00:50:07.696Z,-19.64952
2023-01-07T00:55:08.645Z,-19.67983
2023-01-07T01:00:09.592Z,-20.5817
2023-01-07T01:05:10.532Z,-19.65827
2023-01-07T01:10:11.538Z,-19.98492
2023-01-07T01:15:12.486Z,-19.60757
2023-01-07T01:20:13.444Z,-19.54611
2023-01-07T01:25:14.418Z,-20.67629
2023-01-07T01:30:15.358Z,-21.06015
2023-01-07T01:35:16.333Z,-20.58647
2023-01-07T01:40:17.312Z,-20.51075
2023-01-07T01:45:18.270Z,-20.02994
2023-01-07T01:50:19.218Z,-19.38156
2023-01-07T01:55:20.192Z,-18.76407
2023-01-07T02:00:21.143Z,-18.44013
2023-01-07T02:05:22.088Z,-18.23569
2023-01-07T02:10:23.090Z,-18.67487
2023-01-07T02:15:24.055Z,-18.62268
2023-01-07T02:20:24.981Z,-18.08786
2023-01-07T02:25:25.964Z,-17.55376
2023-01-07T02:30:26.914Z,-17.58788
2023-01-07T02:35:27.864Z,-17.11239
2023-01-07T02:40:28.829Z,-16.26642
2023-01-07T02:45:29.806Z,-15.98069
2023-01-07T02:50:30.948Z,-15.92747
2023-01-07T02:55:32.388Z,-15.69614
2023-01-07T03:00:33.349Z,-15.76082
2023-01-07T03:05:34.411Z,-15.74525
2023-01-07T03:10:35.443Z,-15.90923
2023-01-07T03:15:36.422Z,-15.59276
2023-01-07T03:20:37.407Z,-15.1262
2023-01-07T03:25:38.385Z,-15.351
2023-01-07T03:30:39.362Z,-15.55615
2023-01-07T03:35:40.325Z,-15.71655
2023-01-07T03:40:41.266Z,-15.81054
2023-01-07T03:45:42.277Z,-15.43296
2023-01-07T03:50:43.456Z,-15.56931
2023-01-07T03:55:44.450Z,-15.28066
2023-01-07T04:00:45.513Z,-14.87844
2023-01-07T04:05:46.497Z,-13.46168
2023-01-07T04:10:47.409Z,-13.31604
2023-01-07T04:15:48.359Z,-12.89905
2023-01-07T04:20:49.353Z,-12.20981
2023-01-07T04:25:50.357Z,-12.06989
2023-01-07T04:30:51.342Z,-10.92297
2023-01-07T04:35:52.335Z,-9.51242
2023-01-07T04:40:53.374Z,-10.41515
2023-01-07T04:45:54.362Z,-11.17197
2023-01-07T04:50:55.319Z,-10.23385
2023-01-07T04:55:56.362Z,-9.90721
2023-01-07T05:00:57.338Z,-10.23977
2023-01-07T05:05:58.309Z,-10.02396
2023-01-07T05:10:59.237Z,-9.8022
2023-01-07T05:16:00.183Z,-10.2309
2023-01-07T05:21:01.143Z,-9.86661
2023-01-07T05:26:02.179Z,-10.03588
2023-01-07T05:31:03.224Z,-9.53397
2023-01-07T05:36:04.216Z,-9.28498
2023-01-07T05:41:05.233Z,-9.06841
2023-01-07T05:46:06.292Z,-9.07406
2023-01-07T05:51:07.276Z,-9.09782
2023-01-07T05:56:08.209Z,-9.17096
2023-01-07T06:01:09.210Z,-9.43262
2023-01-07T06:06:10.269Z,-9.71706
2023-01-07T06:11:11.241Z,-9.12846
2023-01-07T06:16:12.277Z,-8.74036
2023-01-07T06:21:13.377Z,-9.47351
2023-01-07T06:26:14.318Z,-10.12374
2023-01-07T06:31:15.305Z,-10.62959
2023-01-07T06:36:16.223Z,-10.62793
2023-01-07T06:41:17.162Z,-11.07596
2023-01-07T06:46:18.225Z,-10.78545
2023-01-07T06:51:19.301Z,-10.81658
2023-01-07T06:56:20.254Z,-10.87584
2023-01-07T07:01:21.319Z,-10.27068
2023-01-07T07:06:22.350Z,-10.05763
2023-01-07T07:11:23.294Z,-9.87373
2023-01-07T07:16:24.367Z,-10.30495
2023-01-07T07:21:25.338Z,-10.68616
2023-01-07T07:26:26.304Z,-11.10613
2023-01-07T07:31:27.329Z,-11.08709
2023-01-07T07:36:28.322Z,-10.97548
2023-01-07T07:41:29.263Z,-10.96277
2023-01-07T07:46:30.280Z,-11.53078
2023-01-07T07:51:31.487Z,-11.5233
2023-01-07T07:56:32.785Z,-11.49367
2023-01-07T08:01:36.446Z,-11.73464
2023-01-07T08:06:38.217Z,-11.91893
2023-01-07T08:11:39.180Z,-11.68569
2023-01-07T08:16:40.158Z,-11.53139
2023-01-07T08:21:41.137Z,-11.06526
2023-01-07T08:26:42.087Z,-10.88221
2023-01-07T08:31:43.165Z,-10.4549
2023-01-07T08:36:44.158Z,-10.23104
2023-01-07T08:41:45.115Z,-10.41978
2023-01-07T08:46:46.233Z,-10.17393
2023-01-07T08:51:47.192Z,-9.10589
2023-01-07T08:56:48.210Z,-9.78152
2023-01-07T09:01:49.249Z,-9.46733
2023-01-07T09:06:50.331Z,-10.05786
2023-01-07T09:11:51.277Z,-9.86605
2023-01-07T09:16:52.280Z,-9.72621
2023-01-07T09:21:53.229Z,-9.70062
2023-01-07T09:26:54.202Z,-9.31883
2023-01-07T09:31:55.315Z,-9.18393
2023-01-07T09:36:56.289Z,-9.23809
2023-01-07T09:41:57.211Z,-9.18212
2023-01-07T09:52:08.727Z,-8.65013
2023-01-07T09:57:09.688Z,-8.57277
2023-01-07T10:02:10.618Z,-7.95982
2023-01-07T10:07:11.604Z,-8.10104
2023-01-07T10:12:12.531Z,-7.37134
2023-01-07T10:17:13.405Z,-6.62543
2023-01-07T10:22:14.354Z,-6.42049
2023-01-07T10:27:15.352Z,-6.56739
2023-01-07T10:32:16.274Z,-5.56578
2023-01-07T10:37:17.183Z,-4.55583
2023-01-07T10:42:18.166Z,-3.54847
2023-01-07T10:47:19.215Z,-3.35288
2023-01-07T10:52:20.118Z,-3.10613
2023-01-07T10:57:21.124Z,-2.90421
2023-01-07T11:02:22.350Z,-2.38761
2023-01-07T11:07:23.654Z,-1.95601
2023-01-07T11:12:24.589Z,-1.29585
2023-01-07T11:17:25.515Z,-0.56872
2023-01-07T11:22:26.448Z,-0.11849
2023-01-07T11:27:27.415Z,0.75903
2023-01-07T11:32:28.365Z,1.20511
2023-01-07T11:37:29.308Z,1.4905
2023-01-07T11:42:30.256Z,1.29788
2023-01-07T11:47:31.193Z,1.4555
2023-01-07T11:52:32.445Z,1.8017
2023-01-07T11:57:33.679Z,2.14646
2023-01-07T12:02:34.713Z,2.62982
2023-01-07T12:07:35.681Z,3.41643
2023-01-07T12:12:36.612Z,3.38175
2023-01-07T12:17:37.521Z,3.80058
2023-01-07T12:22:38.429Z,4.16687
2023-01-07T12:27:39.351Z,4.83977
2023-01-07T12:32:40.318Z,4.99251
2023-01-07T12:37:41.265Z,5.31679
2023-01-07T12:42:42.191Z,5.69234
2023-01-07T12:47:43.147Z,6.69577
2023-01-07T12:52:44.335Z,7.07574
2023-01-07T12:57:45.258Z,7.10657
2023-01-07T13:02:46.177Z,7.63952
2023-01-07T13:07:47.106Z,8.08497
2023-01-07T13:12:48.079Z,8.19997
2023-01-07T13:17:49.013Z,8.74236
2023-01-07T13:22:49.964Z,9.44219
2023-01-07T13:27:50.901Z,10.38945
2023-01-07T13:32:51.867Z,10.62984
2023-01-07T13:37:52.936Z,10.95365
2023-01-07T13:42:53.870Z,11.5717
2023-01-07T13:47:54.850Z,11.79943
2023-01-07T13:52:55.824Z,12.06188
2023-01-07T13:57:56.879Z,12.22403
2023-01-07T14:02:57.909Z,13.21783
2023-01-07T14:07:58.890Z,13.39779
2023-01-07T14:12:59.785Z,13.50449
2023-01-07T14:18:00.707Z,13.76891
2023-01-07T14:23:01.615Z,13.96493
2023-01-07T14:28:02.622Z,14.47038
2023-01-07T14:33:03.543Z,14.33051
2023-01-07T14:38:04.465Z,14.57149
2023-01-07T14:43:05.398Z,14.66619
2023-01-07T14:48:06.347Z,14.46742
2023-01-07T14:53:07.309Z,14.68604
2023-01-07T14:58:08.230Z,14.88935
2023-01-07T15:03:09.190Z,15.17342
2023-01-07T15:08:10.131Z,15.57569
2023-01-07T15:13:11.076Z,15.69007
2023-01-07T15:18:12.024Z,15.14441
2023-01-07T15:23:12.992Z,14.8583
2023-01-07T15:28:14.951Z,15.46071
2023-01-07T15:33:15.900Z,15.31728
2023-01-07T15:38:16.828Z,15.56454
2023-01-07T15:43:17.727Z,16.10375
2023-01-07T15:48:18.726Z,16.04708
2023-01-07T15:53:19.696Z,15.64072
2023-01-07T15:58:20.700Z,15.73798
2023-01-07T16:03:21.629Z,16.17431
2023-01-07T16:08:22.551Z,16.66688
2023-01-07T16:13:23.500Z,16.87911
2023-01-07T16:18:24.419Z,16.85723
2023-01-07T16:23:25.368Z,17.44772
2023-01-07T16:28:26.267Z,17.35019
2023-01-07T16:33:27.306Z,18.15425
2023-01-07T16:38:28.249Z,18.35689
2023-01-07T16:43:29.289Z,18.8985
2023-01-07T16:48:30.258Z,19.12995
2023-01-07T16:53:31.266Z,19.34653
2023-01-07T16:58:32.454Z,19.62004
2023-01-07T17:03:33.712Z,19.85098
2023-01-07T17:08:34.622Z,20.61885
2023-01-07T17:13:35.949Z,20.92834
2023-01-07T17:18:36.848Z,21.47317
2023-01-07T17:23:37.751Z,21.81271
2023-01-07T17:28:38.655Z,22.28311
2023-01-07T17:33:39.595Z,23.18922
2023-01-07T17:38:40.699Z,23.66544
2023-01-07T17:43:41.650Z,23.73839
2023-01-07T17:48:42.645Z,24.08022
2023-01-07T17:53:43.691Z,24.43547
2023-01-07T17:58:44.602Z,24.4971
2023-01-07T18:03:45.497Z,24.55067
2023-01-07T18:08:46.684Z,24.99365
2023-01-07T18:13:47.638Z,25.7387
2023-01-07T18:18:48.579Z,25.84147
2023-01-07T18:23:49.858Z,25.88332
2023-01-07T18:28:50.789Z,26.15319
2023-01-07T18:33:51.733Z,26.45443
2023-01-07T18:38:52.673Z,26.96166
2023-01-07T18:43:53.631Z,27.52297
2023-01-07T18:48:54.609Z,27.7757
2023-01-07T18:53:55.584Z,27.99741
2023-01-07T18:58:56.489Z,28.82282
2023-01-07T19:03:57.472Z,28.96695
2023-01-07T19:08:58.421Z,29.79913
2023-01-07T19:13:59.386Z,30.37707
2023-01-07T19:19:00.327Z,30.27732
2023-01-07T19:24:01.340Z,30.54542
2023-01-07T19:29:02.427Z,31.5825
2023-01-07T19:34:03.589Z,32.03185
2023-01-07T19:39:04.548Z,32.61565
2023-01-07T19:44:05.496Z,33.22067
2023-01-07T19:49:06.567Z,33.88933
2023-01-07T19:54:07.552Z,34.44096
2023-01-07T19:59:08.470Z,35.31666
2023-01-07T20:04:09.502Z,34.78519
2023-01-07T20:09:10.488Z,35.18937
2023-01-07T20:14:11.470Z,35.52539
2023-01-07T20:19:12.490Z,36.29316
2023-01-07T20:24:13.521Z,36.74786
2023-01-07T20:29:14.498Z,37.13467
2023-01-07T20:34:15.437Z,36.77036
2023-01-07T20:39:16.357Z,37.47757
2023-01-07T20:44:17.310Z,37.51411
2023-01-07T20:49:18.270Z,37.70735
2023-01-07T20:54:19.195Z,38.32097
2023-01-07T20:59:20.155Z,39.48942
2023-01-07T21:04:21.112Z,39.99938
2023-01-07T21:09:22.027Z,40.21202
2023-01-07T21:14:22.981Z,40.59811
2023-01-07T21:19:23.879Z,41.30803
2023-01-07T21:24:24.792Z,42.12106
2023-01-07T21:29:25.717Z,42.85697
2023-01-07T21:34:26.652Z,43.13757
2023-01-07T21:39:27.727Z,43.73196
2023-01-07T21:44:28.666Z,43.95127
2023-01-07T21:49:29.610Z,43.79289
2023-01-07T21:54:30.533Z,43.67305
2023-01-07T21:59:31.449Z,43.71449
2023-01-07T22:04:32.657Z,44.10649
2023-01-07T22:09:33.870Z,44.60375
2023-01-07T22:14:34.824Z,44.72398
2023-01-07T22:19:35.754Z,45.28923
2023-01-07T22:24:36.678Z,45.7165
2023-01-07T22:29:37.560Z,45.85984
2023-01-07T22:34:38.480Z,46.19062
2023-01-07T22:39:39.406Z,47.62455
2023-01-07T22:44:40.338Z,47.93991
2023-01-07T22:49:41.700Z,48.1828
2023-01-07T22:54:42.821Z,48.48955
2023-01-07T22:59:45.788Z,48.35669
2023-01-07T23:04:48.033Z,48.99144
2023-01-07T23:09:50.851Z,49.14157
2023-01-07T23:14:52.617Z,48.9431
2023-01-07T23:19:53.561Z,48.64378
2023-01-07T23:24:54.565Z,49.84638
2023-01-07T23:29:55.480Z,50.4424
2023-01-07T23:34:56.414Z,50.74925
2023-01-07T23:39:57.650Z,51.36087
2023-01-07T23:44:58.581Z,52.36971
2023-01-07T23:49:59.599Z,53.6161
2023-01-07T23:55:00.512Z,53.6285
